Terminal Aerodrome Forecast
Issued by NWS

Home | Current Version | Previous Version | Text Only | Print | Product List | Glossary On
Versions: 1 2 3 4 5 6 7 8 9 10 11 12 13 14 15 16 17 18 19 20 21 22
000
FTUS43 KLSX 221139 AAB
TAFCPS
TAF AMD
KCPS 221139Z 2212/2312 02005KT P6SM SCT010 OVC015
      TEMPO 2212/2215 BKN010
     FM221500 02010G18KT P6SM VCSH SCT010 OVC050
     FM230000 34016G26KT P6SM OVC050
     FM230300 33015G25KT P6SM OVC015=

USA.gov is the U.S. government's official web portal to all federal, state and local government web resources and services.